createdAt,value
2018-06-22T00:00:08.493Z,13.65
2018-06-22T00:02:39.581Z,13.28
2018-06-22T00:05:10.615Z,13.29
2018-06-22T00:07:42.034Z,13.18
2018-06-22T00:10:13.165Z,12.93
2018-06-22T00:12:44.470Z,13.32
2018-06-22T00:15:15.525Z,13.45
2018-06-22T00:17:46.610Z,13.15
2018-06-22T00:20:18.194Z,13.38
2018-06-22T00:22:49.382Z,13.52
2018-06-22T00:25:20.525Z,13.46
2018-06-22T00:27:51.720Z,12.92
2018-06-22T00:30:22.794Z,13.15
2018-06-22T00:32:53.880Z,12.94
2018-06-22T00:35:24.814Z,12.54
2018-06-22T00:37:55.797Z,12.85
2018-06-22T00:40:26.795Z,12.82
2018-06-22T00:42:57.848Z,12.92
2018-06-22T00:45:28.902Z,13.16
2018-06-22T00:48:00.009Z,12.77
2018-06-22T00:50:31.129Z,13.18
2018-06-22T00:53:02.272Z,12.40
2018-06-22T00:55:36.092Z,12.19
2018-06-22T00:58:07.702Z,12.14
2018-06-22T01:00:38.959Z,12.51
2018-06-22T01:03:09.834Z,12.44
2018-06-22T01:05:41.401Z,12.81
2018-06-22T01:08:12.571Z,12.65
2018-06-22T01:10:43.600Z,12.93
2018-06-22T01:13:14.616Z,12.97
2018-06-22T01:15:45.625Z,13.12
2018-06-22T01:18:16.563Z,13.08
2018-06-22T01:20:47.525Z,13.08
2018-06-22T01:23:18.454Z,13.09
2018-06-22T01:25:49.464Z,13.08
2018-06-22T01:28:20.701Z,13.20
2018-06-22T01:30:51.965Z,13.10
2018-06-22T01:33:23.035Z,13.18
2018-06-22T01:35:54.007Z,13.19
2018-06-22T01:38:25.110Z,13.14
2018-06-22T01:40:56.346Z,13.12
2018-06-22T01:43:27.394Z,13.07
2018-06-22T01:45:58.317Z,12.99
2018-06-22T01:48:29.308Z,13.00
2018-06-22T01:51:00.252Z,12.80
2018-06-22T01:53:31.566Z,12.07
2018-06-22T01:56:02.679Z,11.99
2018-06-22T01:58:33.735Z,12.30
2018-06-22T02:01:04.806Z,12.46
2018-06-22T02:03:36.056Z,12.51
2018-06-22T02:06:07.174Z,12.20
2018-06-22T02:08:38.215Z,11.57
2018-06-22T02:11:09.554Z,12.08
2018-06-22T02:13:40.565Z,12.35
2018-06-22T02:16:11.652Z,12.47
2018-06-22T02:18:42.575Z,12.37
2018-06-22T02:21:13.682Z,12.50
2018-06-22T02:23:44.847Z,12.65
2018-06-22T02:26:15.799Z,12.61
2018-06-22T02:28:46.787Z,12.58
2018-06-22T02:31:17.706Z,12.27
2018-06-22T02:33:48.806Z,12.33
2018-06-22T02:36:19.771Z,12.43
2018-06-22T02:38:50.798Z,12.04
2018-06-22T02:41:21.966Z,11.57
2018-06-22T02:43:53.006Z,11.71
2018-06-22T02:46:24.131Z,11.32
2018-06-22T02:48:55.271Z,11.58
2018-06-22T02:51:26.194Z,11.53
2018-06-22T02:53:56.976Z,11.54
2018-06-22T02:56:28.049Z,11.14
2018-06-22T02:58:59.197Z,11.10
2018-06-22T03:01:30.092Z,10.72
2018-06-22T03:04:01.227Z,10.98
2018-06-22T03:06:32.181Z,10.76
2018-06-22T03:09:03.323Z,10.68
2018-06-22T03:11:34.348Z,11.01
2018-06-22T03:14:05.362Z,10.78
2018-06-22T03:16:36.324Z,10.71
2018-06-22T03:19:07.300Z,10.55
2018-06-22T03:21:38.240Z,10.32
2018-06-22T03:24:09.192Z,10.15
2018-06-22T03:26:40.075Z,10.23
2018-06-22T03:29:11.065Z,10.11
2018-06-22T03:31:41.957Z,10.18
2018-06-22T03:34:13.089Z,10.27
2018-06-22T03:36:43.968Z,10.19
2018-06-22T03:39:14.837Z,10.15
2018-06-22T03:41:45.740Z,10.06
2018-06-22T03:44:16.550Z,10.17
2018-06-22T03:46:47.675Z,9.84
2018-06-22T03:49:18.718Z,9.93
2018-06-22T03:51:50.417Z,9.89
2018-06-22T03:54:21.647Z,9.86
2018-06-22T03:56:52.880Z,9.97
2018-06-22T03:59:24.012Z,10.07
2018-06-22T04:01:55.116Z,10.18
2018-06-22T04:04:26.147Z,10.41
2018-06-22T04:06:57.515Z,10.50
2018-06-22T04:09:28.555Z,10.47
2018-06-22T04:12:00.323Z,10.51
2018-06-22T04:14:31.983Z,10.44
2018-06-22T04:17:03.120Z,10.40
2018-06-22T04:19:34.446Z,10.35
2018-06-22T04:22:05.620Z,10.44
2018-06-22T04:24:36.719Z,10.56
2018-06-22T04:27:08.019Z,10.33
2018-06-22T04:29:38.958Z,10.32
2018-06-22T04:32:09.945Z,10.38
2018-06-22T04:34:40.981Z,10.53
2018-06-22T04:37:11.993Z,10.58
2018-06-22T04:39:44.179Z,10.95
2018-06-22T04:42:15.472Z,11.08
2018-06-22T04:44:46.398Z,10.83
2018-06-22T04:47:17.532Z,11.29
2018-06-22T04:49:48.816Z,10.92
2018-06-22T04:52:20.126Z,10.91
2018-06-22T04:54:51.094Z,10.71
2018-06-22T04:57:22.131Z,10.69
2018-06-22T04:59:53.373Z,10.42
2018-06-22T05:02:24.397Z,10.30
2018-06-22T05:04:55.573Z,10.45
2018-06-22T05:07:26.582Z,10.56
2018-06-22T05:09:57.624Z,10.60
2018-06-22T05:12:28.595Z,10.56
2018-06-22T05:15:00.557Z,10.53
2018-06-22T05:17:32.589Z,10.90
2018-06-22T05:20:03.619Z,10.75
2018-06-22T05:22:35.058Z,10.82
2018-06-22T05:25:06.057Z,11.00
2018-06-22T05:27:37.897Z,10.85
2018-06-22T05:30:08.842Z,10.68
2018-06-22T05:32:40.021Z,10.65
2018-06-22T05:35:10.941Z,10.57
2018-06-22T05:37:42.037Z,10.70
2018-06-22T05:40:12.988Z,10.60
2018-06-22T05:42:44.039Z,10.69
2018-06-22T05:45:14.926Z,10.62
2018-06-22T05:47:46.495Z,10.35
2018-06-22T05:50:17.944Z,10.75
2018-06-22T05:52:49.394Z,10.42
2018-06-22T05:55:20.713Z,10.77
2018-06-22T05:57:52.536Z,11.11
2018-06-22T06:00:23.565Z,10.88
2018-06-22T06:02:55.141Z,10.86
2018-06-22T06:05:26.288Z,11.20
2018-06-22T06:07:57.570Z,10.59
2018-06-22T06:10:28.824Z,10.44
2018-06-22T06:13:02.568Z,10.55
2018-06-22T06:15:39.701Z,10.50
2018-06-22T06:18:12.382Z,10.34
2018-06-22T06:20:44.450Z,10.40
2018-06-22T06:23:15.558Z,10.27
2018-06-22T06:25:46.594Z,10.52
2018-06-22T06:28:17.599Z,10.31
2018-06-22T06:30:48.567Z,10.50
2018-06-22T06:33:19.750Z,10.60
2018-06-22T06:35:50.803Z,10.48
2018-06-22T06:38:22.062Z,10.59
2018-06-22T06:40:53.278Z,10.47
2018-06-22T06:43:24.415Z,10.88
2018-06-22T06:45:56.088Z,11.46
2018-06-22T06:48:27.202Z,11.16
2018-06-22T06:50:58.870Z,11.00
2018-06-22T06:53:31.345Z,11.06
2018-06-22T06:56:02.933Z,11.45
2018-06-22T06:58:34.541Z,11.52
2018-06-22T07:01:05.896Z,11.69
2018-06-22T07:03:36.851Z,11.53
2018-06-22T07:06:07.707Z,11.89
2018-06-22T07:08:38.679Z,11.66
2018-06-22T07:11:09.718Z,11.92
2018-06-22T07:13:40.805Z,11.92
2018-06-22T07:16:11.841Z,11.65
2018-06-22T07:18:42.962Z,11.37
2018-06-22T07:21:14.648Z,11.31
2018-06-22T07:23:46.709Z,11.72
2018-06-22T07:26:18.286Z,11.39
2018-06-22T07:28:50.768Z,11.42
2018-06-22T07:31:22.147Z,11.28
2018-06-22T07:33:53.802Z,11.52
2018-06-22T07:36:24.840Z,11.15
2018-06-22T07:38:55.944Z,10.99
2018-06-22T07:41:26.832Z,10.91
2018-06-22T07:43:58.178Z,11.34
2018-06-22T07:46:29.219Z,11.35
2018-06-22T07:49:00.289Z,11.52
2018-06-22T07:51:32.419Z,11.54
2018-06-22T07:54:07.352Z,11.35
2018-06-22T07:56:46.678Z,11.25
2018-06-22T07:59:18.292Z,11.18
2018-06-22T08:01:57.481Z,11.49
2018-06-22T08:04:29.128Z,11.56
2018-06-22T08:07:00.611Z,11.46
2018-06-22T08:09:34.935Z,11.35
2018-06-22T08:12:06.145Z,11.16
2018-06-22T08:14:37.207Z,11.05
2018-06-22T08:17:08.985Z,11.03
2018-06-22T08:19:40.272Z,10.76
2018-06-22T08:22:11.549Z,10.69
2018-06-22T08:24:42.832Z,10.66
2018-06-22T08:27:13.954Z,10.80
2018-06-22T08:29:45.478Z,11.05
2018-06-22T08:32:16.805Z,11.10
2018-06-22T08:34:47.968Z,11.15
2018-06-22T08:37:19.975Z,11.21
2018-06-22T08:39:50.859Z,10.92
2018-06-22T08:42:22.221Z,11.13
2018-06-22T08:44:53.276Z,10.91
2018-06-22T08:47:24.899Z,10.73
2018-06-22T08:49:56.327Z,10.81
2018-06-22T08:52:27.885Z,10.64
2018-06-22T08:54:59.203Z,10.79
2018-06-22T08:57:30.343Z,10.52
2018-06-22T09:00:01.624Z,10.50
2018-06-22T09:02:33.253Z,10.68
2018-06-22T09:05:05.075Z,10.23
2018-06-22T09:07:36.697Z,10.29
2018-06-22T09:10:07.980Z,10.09
2018-06-22T09:12:38.971Z,10.43
2018-06-22T09:15:10.164Z,10.32
2018-06-22T09:17:42.655Z,10.51
2018-06-22T09:20:15.499Z,10.24
2018-06-22T09:22:46.737Z,10.48
2018-06-22T09:25:17.754Z,10.35
2018-06-22T09:27:48.834Z,10.35
2018-06-22T09:30:19.894Z,10.06
2018-06-22T09:32:50.978Z,10.05
2018-06-22T09:35:22.466Z,10.03
2018-06-22T09:37:53.527Z,9.79
2018-06-22T09:40:24.716Z,9.84
2018-06-22T09:42:55.907Z,9.80
2018-06-22T09:45:26.925Z,9.87
2018-06-22T09:47:58.115Z,9.68
2018-06-22T09:50:29.207Z,9.75
2018-06-22T09:53:00.464Z,9.56
2018-06-22T09:55:31.747Z,9.66
2018-06-22T09:58:03.013Z,10.07
2018-06-22T10:00:34.050Z,10.22
2018-06-22T10:03:05.599Z,10.29
2018-06-22T10:05:36.441Z,10.18
2018-06-22T10:08:07.596Z,9.98
2018-06-22T10:10:38.489Z,10.21
2018-06-22T10:13:10.963Z,10.25
2018-06-22T10:15:47.007Z,10.20
2018-06-22T10:18:18.436Z,10.25
2018-06-22T10:20:51.190Z,10.40
2018-06-22T10:23:23.013Z,10.42
2018-06-22T10:25:54.656Z,10.07
2018-06-22T10:28:25.727Z,10.42
2018-06-22T10:30:57.487Z,10.42
2018-06-22T10:33:28.813Z,10.50
2018-06-22T10:35:59.822Z,10.81
2018-06-22T10:38:30.974Z,10.79
2018-06-22T10:41:02.199Z,11.13
2018-06-22T10:43:33.742Z,10.77
2018-06-22T10:46:04.845Z,10.96
2018-06-22T10:48:36.119Z,10.87
2018-06-22T10:51:07.620Z,10.88
2018-06-22T10:53:39.113Z,10.54
2018-06-22T10:56:13.155Z,10.85
2018-06-22T10:58:47.535Z,10.67
2018-06-22T11:05:25.124Z,11.05
2018-06-22T11:07:57.397Z,10.77
2018-06-22T11:10:28.933Z,10.94
2018-06-22T11:13:00.039Z,11.31
2018-06-22T11:15:32.851Z,11.51
2018-06-22T11:18:04.090Z,11.42
2018-06-22T11:20:35.412Z,11.22
2018-06-22T11:23:06.517Z,10.94
2018-06-22T11:25:37.708Z,11.13
2018-06-22T11:28:08.713Z,11.15
2018-06-22T11:30:39.718Z,11.42
2018-06-22T11:33:11.101Z,11.12
2018-06-22T11:35:42.270Z,10.73
2018-06-22T11:38:13.462Z,11.08
2018-06-22T11:40:44.979Z,11.05
2018-06-22T11:43:16.249Z,10.59
2018-06-22T11:45:48.182Z,10.90
2018-06-22T11:48:19.322Z,11.41
2018-06-22T11:50:51.026Z,11.57
2018-06-22T11:53:22.315Z,11.76
2018-06-22T11:55:53.482Z,11.73
2018-06-22T11:58:25.023Z,11.86
2018-06-22T12:00:57.714Z,11.95
2018-06-22T12:03:29.647Z,11.77
2018-06-22T12:06:00.927Z,11.90
2018-06-22T12:08:33.090Z,11.96
2018-06-22T12:11:04.069Z,11.99
2018-06-22T12:13:35.260Z,11.75
2018-06-22T12:16:06.894Z,11.51
2018-06-22T12:18:37.953Z,11.63
2018-06-22T12:21:11.129Z,10.94
2018-06-22T12:23:43.685Z,11.29
2018-06-22T12:26:14.796Z,11.28
2018-06-22T12:28:45.946Z,11.60
2018-06-22T12:31:16.936Z,11.87
2018-06-22T12:33:48.061Z,12.72
2018-06-22T12:36:19.534Z,13.56
2018-06-22T12:38:51.467Z,13.21
2018-06-22T12:41:22.494Z,13.09
2018-06-22T12:43:53.594Z,13.88
2018-06-22T12:46:24.813Z,13.62
2018-06-22T12:48:56.778Z,13.58
2018-06-22T12:51:27.933Z,13.60
2018-06-22T12:54:06.501Z,13.15
2018-06-22T12:56:39.162Z,13.42
2018-06-22T12:59:10.600Z,13.41
2018-06-22T13:01:41.775Z,13.35
2018-06-22T13:04:13.264Z,12.85
2018-06-22T13:06:44.734Z,12.58
2018-06-22T13:09:16.485Z,12.89
2018-06-22T13:11:47.517Z,12.60
2018-06-22T13:14:19.585Z,12.25
2018-06-22T13:16:51.446Z,12.38
2018-06-22T13:19:22.832Z,12.37
2018-06-22T13:21:56.314Z,12.37
2018-06-22T13:24:30.140Z,12.49
2018-06-22T13:27:01.868Z,12.40
2018-06-22T13:29:33.298Z,12.17
2018-06-22T13:32:05.350Z,12.12
2018-06-22T13:34:38.545Z,12.67
2018-06-22T13:37:09.851Z,12.95
2018-06-22T13:39:40.891Z,13.36
2018-06-22T13:42:12.222Z,13.50
2018-06-22T13:44:43.231Z,13.79
2018-06-22T13:47:15.958Z,14.51
2018-06-22T13:49:47.590Z,14.54
2018-06-22T13:52:18.958Z,14.51
2018-06-22T13:54:51.145Z,14.03
2018-06-22T13:57:22.985Z,14.23
2018-06-22T13:59:54.092Z,13.91
2018-06-22T14:02:25.689Z,13.63
2018-06-22T14:05:01.921Z,13.42
2018-06-22T14:07:33.495Z,13.60
2018-06-22T14:10:05.547Z,13.99
2018-06-22T14:12:37.961Z,14.45
2018-06-22T14:15:09.725Z,14.58
2018-06-22T14:17:40.838Z,13.98
2018-06-22T14:20:12.135Z,14.85
2018-06-22T14:22:43.398Z,15.12
2018-06-22T14:25:16.317Z,14.96
2018-06-22T14:27:48.350Z,14.99
2018-06-22T14:30:19.426Z,14.92
2018-06-22T14:32:50.507Z,14.91
2018-06-22T14:35:21.768Z,14.57
2018-06-22T14:37:52.874Z,14.31
2018-06-22T14:40:23.892Z,14.47
2018-06-22T14:42:55.058Z,14.91
2018-06-22T14:45:26.555Z,15.14
2018-06-22T14:47:58.221Z,14.81
2018-06-22T14:50:29.230Z,15.35
2018-06-22T14:53:00.845Z,14.93
2018-06-22T14:55:36.914Z,14.59
2018-06-22T14:58:13.193Z,14.41
2018-06-22T15:00:49.149Z,14.35
2018-06-22T15:03:25.339Z,14.30
2018-06-22T15:06:01.335Z,14.35
2018-06-22T15:08:32.395Z,14.51
2018-06-22T15:11:03.647Z,14.66
2018-06-22T15:13:34.926Z,14.81
2018-06-22T15:16:05.868Z,15.04
2018-06-22T15:18:36.873Z,15.52
2018-06-22T15:21:08.108Z,15.54
2018-06-22T15:23:39.321Z,15.06
2018-06-22T15:26:12.307Z,15.14
2018-06-22T15:28:43.978Z,15.11
2018-06-22T15:31:15.251Z,14.91
2018-06-22T15:33:51.625Z,14.69
2018-06-22T15:36:27.808Z,14.40
2018-06-22T15:39:04.067Z,14.31
2018-06-22T15:41:40.428Z,14.27
2018-06-22T15:44:16.586Z,14.04
2018-06-22T15:46:52.627Z,14.33
2018-06-22T15:49:28.544Z,14.65
2018-06-22T15:52:05.578Z,14.73
2018-06-22T15:54:42.086Z,14.60
2018-06-22T15:57:16.875Z,14.74
2018-06-22T15:59:49.828Z,14.53
2018-06-22T16:02:25.906Z,14.34
2018-06-22T16:04:57.317Z,14.37
2018-06-22T16:07:30.404Z,14.59
2018-06-22T16:10:03.482Z,14.34
2018-06-22T16:12:40.399Z,14.41
2018-06-22T16:15:18.082Z,14.29
2018-06-22T16:17:54.831Z,14.07
2018-06-22T16:20:31.122Z,13.85
2018-06-22T16:23:08.057Z,14.24
2018-06-22T16:25:44.990Z,14.09
2018-06-22T16:28:18.000Z,13.46
2018-06-22T16:30:50.248Z,13.16
2018-06-22T16:33:23.084Z,12.95
2018-06-22T16:35:54.347Z,12.79
2018-06-22T16:38:26.308Z,12.61
2018-06-22T16:40:57.640Z,13.03
2018-06-22T16:43:28.607Z,13.24
2018-06-22T16:46:00.801Z,12.97
2018-06-22T16:48:31.974Z,13.09
2018-06-22T16:51:03.896Z,13.24
2018-06-22T16:53:35.313Z,13.40
2018-06-22T16:56:07.344Z,13.39
2018-06-22T16:58:39.735Z,13.31
2018-06-22T17:01:12.529Z,13.34
2018-06-22T17:03:44.297Z,13.20
2018-06-22T17:06:16.250Z,13.00
2018-06-22T17:08:53.008Z,13.14
2018-06-22T17:11:30.142Z,13.08
2018-06-22T17:14:06.431Z,13.12
2018-06-22T17:16:43.487Z,13.25
2018-06-22T17:19:20.578Z,13.26
2018-06-22T17:21:52.645Z,13.37
2018-06-22T17:24:27.426Z,13.39
2018-06-22T17:26:59.330Z,13.10
2018-06-22T17:29:31.497Z,13.34
2018-06-22T17:32:03.044Z,13.59
2018-06-22T17:34:34.266Z,13.20
2018-06-22T17:37:05.396Z,13.37
2018-06-22T17:39:37.052Z,13.31
2018-06-22T17:42:09.751Z,13.04
2018-06-22T17:44:41.189Z,13.10
2018-06-22T17:47:13.559Z,12.94
2018-06-22T17:49:45.333Z,12.79
2018-06-22T17:52:16.977Z,12.80
2018-06-22T17:54:49.275Z,12.83
2018-06-22T17:57:21.229Z,12.69
2018-06-22T17:59:57.828Z,12.80
2018-06-22T18:02:34.499Z,12.83
2018-06-22T18:05:10.597Z,12.86
2018-06-22T18:07:45.110Z,12.84
2018-06-22T18:10:21.329Z,12.73
2018-06-22T18:13:00.054Z,13.03
2018-06-22T18:15:31.636Z,12.61
2018-06-22T18:18:03.945Z,12.63
2018-06-22T18:20:35.784Z,12.66
2018-06-22T18:23:06.962Z,12.80
2018-06-22T18:25:38.103Z,12.62
2018-06-22T18:28:09.389Z,12.63
2018-06-22T18:30:43.547Z,12.66
2018-06-22T18:33:15.833Z,12.66
2018-06-22T18:35:47.213Z,12.74
2018-06-22T18:38:19.683Z,12.61
2018-06-22T18:40:51.713Z,12.50
2018-06-22T18:43:29.409Z,12.52
2018-06-22T18:46:01.299Z,12.56
2018-06-22T18:48:34.437Z,12.57
2018-06-22T18:51:07.085Z,12.58
2018-06-22T18:53:44.214Z,12.49
2018-06-22T18:56:21.461Z,12.19
2018-06-22T18:58:58.172Z,12.21
2018-06-22T19:01:34.323Z,12.20
2018-06-22T19:04:05.851Z,12.19
2018-06-22T19:06:39.096Z,12.19
2018-06-22T19:09:10.693Z,12.11
2018-06-22T19:11:41.995Z,12.18
2018-06-22T19:14:13.689Z,12.08
2018-06-22T19:16:47.370Z,12.18
2018-06-22T19:19:19.568Z,12.08
2018-06-22T19:21:52.059Z,12.13
2018-06-22T19:24:23.544Z,12.19
2018-06-22T19:26:54.537Z,12.01
2018-06-22T19:29:25.729Z,12.03
2018-06-22T19:31:57.225Z,11.95
2018-06-22T19:34:33.651Z,11.77
2018-06-22T19:37:05.062Z,11.80
2018-06-22T19:39:36.224Z,11.81
2018-06-22T19:42:07.628Z,11.70
2018-06-22T19:44:44.700Z,11.68
2018-06-22T19:47:22.261Z,11.64
2018-06-22T19:49:59.202Z,11.70
2018-06-22T19:52:35.843Z,11.82
2018-06-22T19:55:09.093Z,11.77
2018-06-22T19:57:41.998Z,11.63
2018-06-22T20:00:13.882Z,11.71
2018-06-22T20:02:46.698Z,11.74
2018-06-22T20:05:19.640Z,11.80
2018-06-22T20:07:51.540Z,11.65
2018-06-22T20:10:22.938Z,11.70
2018-06-22T20:12:56.111Z,11.40
2018-06-22T20:15:28.185Z,11.55
2018-06-22T20:18:00.383Z,11.67
2018-06-22T20:20:32.961Z,11.54
2018-06-22T20:23:04.645Z,11.14
2018-06-22T20:25:41.368Z,11.40
2018-06-22T20:28:13.315Z,11.18
2018-06-22T20:30:49.327Z,11.97
2018-06-22T20:33:22.662Z,11.97
2018-06-22T20:35:59.181Z,12.03
2018-06-22T20:38:35.470Z,11.81
2018-06-22T20:41:12.015Z,12.70
2018-06-22T20:43:48.179Z,11.77
2018-06-22T20:46:24.425Z,11.92
2018-06-22T20:49:01.000Z,11.71
2018-06-22T20:51:40.467Z,12.12
2018-06-22T20:54:11.778Z,11.77
2018-06-22T20:56:43.972Z,11.63
2018-06-22T20:59:15.204Z,11.57
2018-06-22T21:01:46.850Z,11.50
2018-06-22T21:04:18.044Z,11.46
2018-06-22T21:06:49.850Z,11.67
2018-06-22T21:09:21.121Z,11.47
2018-06-22T21:11:52.651Z,11.66
2018-06-22T21:14:23.722Z,11.70
2018-06-22T21:16:54.958Z,11.79
2018-06-22T21:19:26.068Z,11.79
2018-06-22T21:22:04.012Z,11.83
2018-06-22T21:24:37.470Z,11.70
2018-06-22T21:27:14.176Z,11.89
2018-06-22T21:29:50.510Z,12.05
2018-06-22T21:34:28.957Z,11.84
2018-06-22T21:37:04.927Z,11.55
2018-06-22T21:39:36.131Z,11.47
2018-06-22T21:42:07.167Z,11.47
2018-06-22T21:44:38.385Z,11.55
2018-06-22T21:47:10.910Z,11.63
2018-06-22T21:49:42.357Z,11.45
2018-06-22T21:52:13.590Z,11.57
2018-06-22T21:54:44.976Z,11.63
2018-06-22T21:57:16.098Z,11.62
2018-06-22T21:59:47.171Z,11.62
2018-06-22T22:02:18.466Z,11.45
2018-06-22T22:04:50.014Z,11.27
2018-06-22T22:07:21.142Z,11.24
2018-06-22T22:09:52.367Z,11.30
2018-06-22T22:12:23.514Z,11.34
2018-06-22T22:14:54.894Z,11.29
2018-06-22T22:17:25.967Z,11.11
2018-06-22T22:19:57.096Z,11.09
2018-06-22T22:22:28.231Z,11.01
2018-06-22T22:24:59.380Z,11.08
2018-06-22T22:27:30.793Z,11.05
2018-06-22T22:30:02.251Z,11.20
2018-06-22T22:32:33.282Z,11.07
2018-06-22T22:35:04.839Z,11.03
2018-06-22T22:37:35.971Z,11.07
2018-06-22T22:40:07.709Z,11.28
2018-06-22T22:42:38.717Z,11.04
2018-06-22T22:45:09.828Z,10.95
2018-06-22T22:47:41.000Z,10.79
2018-06-22T22:50:12.171Z,10.80
2018-06-22T22:52:43.207Z,10.71
2018-06-22T22:55:14.234Z,10.83
2018-06-22T22:57:45.324Z,10.57
2018-06-22T23:00:17.604Z,10.86
2018-06-22T23:02:48.766Z,10.62
2018-06-22T23:05:20.356Z,10.61
2018-06-22T23:07:51.464Z,10.79
2018-06-22T23:10:22.734Z,10.73
2018-06-22T23:12:54.245Z,10.96
2018-06-22T23:15:25.627Z,11.10
2018-06-22T23:17:56.687Z,11.25
2018-06-22T23:20:27.997Z,11.24
2018-06-22T23:23:09.779Z,11.08
2018-06-22T23:25:41.245Z,11.25
2018-06-22T23:28:12.287Z,11.17
2018-06-22T23:30:43.685Z,11.04
2018-06-22T23:33:14.758Z,10.88
2018-06-22T23:35:45.761Z,10.88
2018-06-22T23:38:16.850Z,10.88
2018-06-22T23:40:48.157Z,11.07
2018-06-22T23:43:19.456Z,10.92
2018-06-22T23:45:50.748Z,11.09
2018-06-22T23:48:21.992Z,11.07
2018-06-22T23:50:53.200Z,10.96
2018-06-22T23:53:24.354Z,11.04
2018-06-22T23:55:55.460Z,11.06
2018-06-22T23:58:26.426Z,11.15
